createdAt,value
2022-08-10T00:01:52.257Z,101032.50
2022-08-10T00:04:22.536Z,101029.88
2022-08-10T00:06:54.422Z,101035.31
2022-08-10T00:09:23.465Z,101030.00
2022-08-10T00:11:52.219Z,101031.25
2022-08-10T00:14:22.185Z,101031.75
2022-08-10T00:16:50.520Z,101031.84
2022-08-10T00:19:19.027Z,101023.81
2022-08-10T00:21:47.640Z,101029.53
2022-08-10T00:24:16.083Z,101031.78
2022-08-10T00:27:53.121Z,101035.56
2022-08-10T00:29:36.409Z,101027.72
2022-08-10T00:32:05.049Z,101030.34
2022-08-10T00:34:36.067Z,101028.78
2022-08-10T00:37:04.716Z,101027.53
2022-08-10T00:39:35.874Z,101027.53
2022-08-10T00:42:08.280Z,101026.03
2022-08-10T00:44:40.341Z,101032.47
2022-08-10T00:47:16.303Z,101027.28
2022-08-10T00:50:00.604Z,101035.66
2022-08-10T00:52:30.938Z,101035.41
2022-08-10T00:54:59.931Z,101033.84
2022-08-10T00:57:28.782Z,101031.03
2022-08-10T01:00:00.376Z,101028.31
2022-08-10T01:02:33.541Z,101031.91
2022-08-10T01:05:05.497Z,101020.31
2022-08-10T01:07:49.501Z,101024.56
2022-08-10T01:10:30.723Z,101021.88
2022-08-10T01:13:07.665Z,101021.06
2022-08-10T01:15:48.992Z,101022.25
2022-08-10T01:18:22.721Z,101019.81
2022-08-10T01:21:17.998Z,101024.66
2022-08-10T01:24:09.957Z,101023.31
2022-08-10T01:26:49.197Z,101028.13
2022-08-10T01:29:53.956Z,101023.00
2022-08-10T01:32:32.222Z,101023.47
2022-08-10T01:35:07.661Z,101026.25
2022-08-10T01:37:42.487Z,101022.69
2022-08-10T01:40:25.662Z,101025.97
2022-08-10T01:42:59.820Z,101025.19
2022-08-10T01:45:44.673Z,101024.88
2022-08-10T01:48:29.294Z,101018.69
2022-08-10T01:51:02.303Z,101023.72
2022-08-10T01:53:40.108Z,101034.41
2022-08-10T01:56:11.979Z,101034.19
2022-08-10T01:58:42.057Z,101028.38
2022-08-10T02:01:16.978Z,101025.75
2022-08-10T02:04:05.302Z,101026.22
2022-08-10T02:06:38.092Z,101025.09
2022-08-10T02:09:10.050Z,101029.56
2022-08-10T02:12:05.900Z,101030.44
2022-08-10T02:14:32.820Z,101034.97
2022-08-10T02:17:04.064Z,101031.50
2022-08-10T02:19:36.560Z,101042.38
2022-08-10T02:22:36.729Z,101046.25
2022-08-10T02:24:58.273Z,101041.91
2022-08-10T02:27:28.540Z,101044.31
2022-08-10T02:29:58.560Z,101049.78
2022-08-10T02:32:38.305Z,101048.03
2022-08-10T02:35:17.778Z,101035.31
2022-08-10T02:37:54.084Z,101044.03
2022-08-10T02:42:17.950Z,101049.72
2022-08-10T02:45:20.984Z,101031.47
2022-08-10T02:46:20.925Z,101046.41
2022-08-10T02:49:00.051Z,101051.88
2022-08-10T02:52:08.112Z,101048.41
2022-08-10T02:54:27.917Z,101046.75
2022-08-10T02:56:59.490Z,101048.16
2022-08-10T02:59:39.844Z,101052.16
2022-08-10T03:02:14.456Z,101045.09
2022-08-10T03:04:55.792Z,101054.25
2022-08-10T03:07:43.032Z,101057.38
2022-08-10T03:10:16.708Z,101046.03
2022-08-10T03:12:46.743Z,101049.63
2022-08-10T03:15:17.750Z,101046.47
2022-08-10T03:17:56.882Z,101051.88
2022-08-10T03:23:42.675Z,101055.41
2022-08-10T03:26:11.606Z,101060.13
2022-08-10T03:28:42.259Z,101056.13
2022-08-10T03:31:10.814Z,101059.25
2022-08-10T03:33:40.795Z,101052.03
2022-08-10T03:36:41.333Z,101058.38
2022-08-10T03:38:59.850Z,101056.88
2022-08-10T03:41:35.653Z,101055.22
2022-08-10T03:44:07.071Z,101063.88
2022-08-10T03:46:38.346Z,101058.66
2022-08-10T03:49:08.183Z,101064.44
2022-08-10T03:51:38.278Z,101061.28
2022-08-10T03:54:10.318Z,101065.91
2022-08-10T03:56:42.023Z,101060.34
2022-08-10T03:59:15.250Z,101066.16
2022-08-10T04:02:46.061Z,101066.50
2022-08-10T04:04:32.227Z,101065.50
2022-08-10T04:07:01.155Z,101067.44
2022-08-10T04:09:55.668Z,101071.78
2022-08-10T04:12:20.920Z,101071.09
2022-08-10T04:14:53.177Z,101069.66
2022-08-10T04:17:56.685Z,101074.50
2022-08-10T04:20:19.212Z,101071.25
2022-08-10T04:22:49.684Z,101074.25
2022-08-10T04:25:22.974Z,101073.88
2022-08-10T04:27:55.356Z,101072.22
2022-08-10T04:30:28.260Z,101077.69
2022-08-10T04:32:59.817Z,101079.44
2022-08-10T04:35:30.372Z,101078.47
2022-08-10T04:38:00.442Z,101082.84
2022-08-10T04:40:31.259Z,101071.72
2022-08-10T04:43:05.770Z,101072.66
2022-08-10T04:45:49.963Z,101075.03
2022-08-10T04:48:40.414Z,101081.69
2022-08-10T04:51:18.302Z,101074.78
2022-08-10T04:54:06.124Z,101076.38
2022-08-10T04:56:38.859Z,101077.00
2022-08-10T04:59:08.055Z,101073.97
2022-08-10T05:02:21.916Z,101079.22
2022-08-10T05:04:37.747Z,101075.91
2022-08-10T05:07:10.234Z,101083.16
2022-08-10T05:10:04.569Z,101084.03
2022-08-10T05:12:29.308Z,101087.28
2022-08-10T05:14:57.915Z,101091.41
2022-08-10T05:17:25.917Z,101093.50
2022-08-10T05:20:02.237Z,101094.22
2022-08-10T05:22:38.658Z,101092.78
2022-08-10T05:25:11.265Z,101096.91
2022-08-10T05:27:41.184Z,101099.44
2022-08-10T05:30:11.812Z,101099.53
2022-08-10T05:32:57.639Z,101095.50
2022-08-10T05:35:55.101Z,101099.25
2022-08-10T05:38:23.987Z,101101.97
2022-08-10T05:40:55.454Z,101101.00
2022-08-10T05:43:27.266Z,101102.81
2022-08-10T05:46:17.956Z,101092.91
2022-08-10T05:48:59.549Z,101107.16
2022-08-10T05:51:29.990Z,101106.03
2022-08-10T05:54:01.155Z,101102.75
2022-08-10T05:56:55.678Z,101100.38
2022-08-10T06:00:34.658Z,101108.69
2022-08-10T06:02:41.307Z,101104.94
2022-08-10T06:05:10.280Z,101104.06
2022-08-10T06:07:41.940Z,101106.97
2022-08-10T06:10:28.526Z,101109.06
2022-08-10T06:13:30.256Z,101102.94
2022-08-10T06:16:08.238Z,101104.44
2022-08-10T06:18:37.932Z,101105.41
2022-08-10T06:21:07.045Z,101111.06
2022-08-10T06:23:37.237Z,101108.78
2022-08-10T06:26:12.166Z,101103.03
2022-08-10T06:28:52.798Z,101110.91
2022-08-10T06:31:47.906Z,101103.72
2022-08-10T06:34:25.575Z,101115.56
2022-08-10T06:36:56.346Z,101108.66
2022-08-10T06:39:36.468Z,101115.97
2022-08-10T06:42:18.130Z,101117.44
2022-08-10T06:44:57.934Z,101121.25
2022-08-10T06:47:33.722Z,101123.31
2022-08-10T06:50:09.525Z,101115.28
2022-08-10T06:52:39.500Z,101122.75
2022-08-10T06:55:16.828Z,101104.00
2022-08-10T06:57:59.683Z,101106.91
2022-08-10T07:00:33.482Z,101117.34
2022-08-10T07:03:11.829Z,101120.25
2022-08-10T07:05:46.872Z,101120.16
2022-08-10T07:08:19.122Z,101113.69
2022-08-10T07:10:48.638Z,101127.63
2022-08-10T07:14:16.019Z,101117.81
2022-08-10T07:16:12.495Z,101127.28
2022-08-10T07:18:47.025Z,101123.91
2022-08-10T07:21:16.434Z,101121.78
2022-08-10T07:23:57.084Z,101125.47
2022-08-10T07:26:32.016Z,101132.94
2022-08-10T07:29:01.459Z,101129.44
2022-08-10T07:31:29.961Z,101125.72
2022-08-10T07:34:29.120Z,101126.78
2022-08-10T07:37:03.113Z,101133.19
2022-08-10T07:40:02.330Z,101130.66
2022-08-10T07:42:23.544Z,101130.91
2022-08-10T07:44:52.172Z,101129.69
2022-08-10T07:47:52.938Z,101136.44
2022-08-10T07:50:22.904Z,101130.69
2022-08-10T07:52:53.127Z,101136.28
2022-08-10T07:56:04.372Z,101135.88
2022-08-10T07:58:14.969Z,101136.34
2022-08-10T08:00:44.798Z,101133.94
2022-08-10T08:03:15.155Z,101139.19
2022-08-10T08:05:58.366Z,101131.00
2022-08-10T08:08:32.220Z,101129.88
2022-08-10T08:11:01.120Z,101138.31
2022-08-10T08:13:30.426Z,101138.16
2022-08-10T08:16:17.533Z,101131.25
2022-08-10T08:19:09.977Z,101127.69
2022-08-10T08:24:42.571Z,101125.78
2022-08-10T08:27:15.298Z,101132.16
2022-08-10T08:29:47.422Z,101131.44
2022-08-10T08:32:22.354Z,101132.56
2022-08-10T08:34:55.979Z,101130.97
2022-08-10T08:38:31.170Z,101123.53
2022-08-10T08:40:20.435Z,101119.47
2022-08-10T08:43:18.033Z,101117.31
2022-08-10T08:46:16.029Z,101114.31
2022-08-10T08:49:07.243Z,101104.69
2022-08-10T08:52:09.538Z,101106.63
2022-08-10T08:54:47.960Z,101116.88
2022-08-10T08:57:49.167Z,101114.91
2022-08-10T09:00:27.096Z,101109.06
2022-08-10T09:03:33.333Z,101102.53
2022-08-10T09:06:17.050Z,101109.53
2022-08-10T09:09:04.597Z,101101.50
2022-08-10T09:11:45.648Z,101107.00
2022-08-10T09:14:25.686Z,101099.91
2022-08-10T09:17:00.640Z,101103.56
2022-08-10T09:19:35.669Z,101107.88
2022-08-10T09:22:19.432Z,101110.41
2022-08-10T09:24:55.047Z,101098.97
2022-08-10T09:27:35.678Z,101115.75
2022-08-10T09:30:08.459Z,101104.44
2022-08-10T09:36:14.153Z,101103.03
2022-08-10T09:36:28.350Z,101098.53
2022-08-10T09:38:43.961Z,101101.88
2022-08-10T09:41:26.726Z,101096.31
2022-08-10T09:44:09.732Z,101096.03
2022-08-10T09:46:58.732Z,101094.06
2022-08-10T09:49:54.423Z,101096.44
2022-08-10T09:52:32.381Z,101093.63
2022-08-10T09:55:14.307Z,101091.63
2022-08-10T09:57:57.628Z,101085.78
2022-08-10T10:00:31.697Z,101075.31
2022-08-10T10:03:13.469Z,101068.28
2022-08-10T10:05:52.657Z,101074.97
2022-08-10T10:08:33.591Z,101068.31
2022-08-10T10:11:08.880Z,101073.13
2022-08-10T10:14:02.521Z,101075.22
2022-08-10T10:16:55.205Z,101056.91
2022-08-10T10:19:40.854Z,101072.91
2022-08-10T10:22:26.286Z,101072.47
2022-08-10T10:25:20.790Z,101063.59
2022-08-10T10:27:59.143Z,101066.03
2022-08-10T10:30:36.224Z,101056.97
2022-08-10T10:33:14.448Z,101058.63
2022-08-10T10:35:52.367Z,101062.09
2022-08-10T10:38:24.025Z,101067.00
2022-08-10T10:41:01.655Z,101053.13
2022-08-10T10:43:43.316Z,101055.72
2022-08-10T10:46:24.803Z,101064.16
2022-08-10T10:49:01.589Z,101044.91
2022-08-10T10:51:39.555Z,101045.41
2022-08-10T10:54:13.009Z,101047.03
2022-08-10T10:56:56.821Z,101030.41
2022-08-10T10:59:55.364Z,101034.44
2022-08-10T11:03:00.883Z,101040.63
2022-08-10T11:05:39.287Z,101022.47
2022-08-10T11:08:16.435Z,101018.44
2022-08-10T11:10:52.716Z,101029.84
2022-08-10T11:14:25.089Z,101035.09
2022-08-10T11:16:39.019Z,101034.38
2022-08-10T11:19:14.252Z,101036.50
2022-08-10T11:21:55.416Z,101023.34
2022-08-10T11:24:48.930Z,101027.06
2022-08-10T11:27:34.912Z,101021.84
2022-08-10T11:30:07.886Z,101017.16
2022-08-10T11:32:49.269Z,101024.03
2022-08-10T11:35:25.999Z,101042.66
2022-08-10T11:38:28.394Z,101017.78
2022-08-10T11:41:12.806Z,101019.31
2022-08-10T11:44:02.161Z,101021.63
2022-08-10T11:46:33.622Z,101005.69
2022-08-10T11:49:10.813Z,101002.84
2022-08-10T11:51:49.694Z,101007.59
2022-08-10T11:54:30.840Z,101003.66
2022-08-10T11:57:03.108Z,100998.31
2022-08-10T11:59:57.985Z,101000.03
2022-08-10T12:02:32.781Z,100999.28
2022-08-10T12:05:07.451Z,101004.75
2022-08-10T12:10:04.375Z,100990.13
2022-08-10T12:10:29.259Z,100988.03
2022-08-10T12:13:07.947Z,101002.94
2022-08-10T12:15:42.084Z,100992.00
2022-08-10T12:18:18.791Z,100986.50
2022-08-10T12:20:51.826Z,100976.28
2022-08-10T12:23:26.965Z,100970.91
2022-08-10T12:26:07.452Z,100976.66
2022-08-10T12:28:49.938Z,100976.31
2022-08-10T12:31:25.012Z,100962.16
2022-08-10T12:34:09.905Z,100965.94
2022-08-10T12:36:43.902Z,100961.34
2022-08-10T12:39:19.960Z,100956.16
2022-08-10T12:41:53.917Z,100946.38
2022-08-10T12:44:35.748Z,100957.66
2022-08-10T12:47:21.318Z,100938.56
2022-08-10T12:50:13.776Z,100935.91
2022-08-10T12:52:52.510Z,100934.16
2022-08-10T12:55:24.282Z,100933.13
2022-08-10T12:57:55.862Z,100930.94
2022-08-10T13:00:31.195Z,100929.44
2022-08-10T13:03:01.661Z,100924.28
2022-08-10T13:05:32.731Z,100911.97
2022-08-10T13:08:40.196Z,100918.81
2022-08-10T13:11:20.168Z,100915.69
2022-08-10T13:14:04.922Z,100909.28
2022-08-10T13:16:35.209Z,100911.50
2022-08-10T13:19:05.472Z,100910.94
2022-08-10T13:21:37.350Z,100903.94
2022-08-10T13:25:43.176Z,100907.25
2022-08-10T13:28:37.407Z,100894.84
2022-08-10T13:31:04.760Z,100886.47
2022-08-10T13:34:39.868Z,100886.84
2022-08-10T13:36:29.805Z,100880.97
2022-08-10T13:38:58.971Z,100838.19
2022-08-10T13:41:30.416Z,100879.31
2022-08-10T13:44:01.345Z,100880.19
2022-08-10T13:46:29.460Z,100873.03
2022-08-10T13:49:04.151Z,100885.59
2022-08-10T13:51:56.473Z,100881.75
2022-08-10T13:54:28.764Z,100874.19
2022-08-10T13:57:00.056Z,100882.16
2022-08-10T14:00:34.509Z,100877.53
2022-08-10T14:02:26.007Z,100878.09
2022-08-10T14:04:57.207Z,100870.25
2022-08-10T14:07:27.162Z,100860.06
2022-08-10T14:10:07.021Z,100857.25
2022-08-10T14:12:40.412Z,100862.84
2022-08-10T14:15:12.452Z,100846.34
2022-08-10T14:17:44.919Z,100842.69
2022-08-10T14:20:20.888Z,100852.34
2022-08-10T14:22:50.345Z,100843.75
2022-08-10T14:25:18.428Z,100846.72
2022-08-10T14:28:02.284Z,100830.09
2022-08-10T14:30:34.043Z,100840.28
2022-08-10T14:33:04.995Z,100828.69
2022-08-10T14:36:22.259Z,100825.63
2022-08-10T14:38:30.233Z,100836.91
2022-08-10T14:41:01.130Z,100834.78
2022-08-10T14:43:39.678Z,100835.22
2022-08-10T14:46:19.592Z,100829.75
2022-08-10T14:48:52.568Z,100819.56
2022-08-10T14:51:27.236Z,100821.00
2022-08-10T14:54:15.866Z,100823.31
2022-08-10T14:56:49.878Z,100827.75
2022-08-10T14:59:20.967Z,100821.78
2022-08-10T15:02:38.651Z,100816.50
2022-08-10T15:04:53.072Z,100819.09
2022-08-10T15:07:22.670Z,100811.72
2022-08-10T15:10:00.166Z,100817.88
2022-08-10T15:12:35.761Z,100814.78
2022-08-10T15:15:08.163Z,100814.09
2022-08-10T15:17:43.004Z,100811.19
2022-08-10T15:20:20.785Z,100816.53
2022-08-10T15:22:55.739Z,100811.19
2022-08-10T15:25:27.075Z,100793.59
2022-08-10T15:28:05.661Z,100797.72
2022-08-10T15:30:42.622Z,100812.84
2022-08-10T15:34:03.865Z,100800.97
2022-08-10T15:36:41.999Z,100800.31
2022-08-10T15:40:21.007Z,100786.69
2022-08-10T15:42:08.682Z,100794.97
2022-08-10T15:44:42.406Z,100793.28
2022-08-10T15:47:16.897Z,100790.69
2022-08-10T15:49:53.267Z,100788.97
2022-08-10T15:52:39.083Z,100784.53
2022-08-10T15:55:43.164Z,100789.19
2022-08-10T15:58:12.318Z,100785.53
2022-08-10T16:00:51.315Z,100777.47
2022-08-10T16:03:31.673Z,100778.66
2022-08-10T16:06:03.537Z,100775.56
2022-08-10T16:08:56.178Z,100765.25
2022-08-10T16:11:37.659Z,100767.34
2022-08-10T16:14:11.342Z,100769.09
2022-08-10T16:16:40.990Z,100765.63
2022-08-10T16:19:22.432Z,100767.19
2022-08-10T16:21:55.730Z,100758.94
2022-08-10T16:24:30.907Z,100771.28
2022-08-10T16:27:06.538Z,100754.09
2022-08-10T16:29:56.482Z,100759.25
2022-08-10T16:32:28.109Z,100761.50
2022-08-10T16:35:02.286Z,100760.94
2022-08-10T16:37:57.603Z,100756.47
2022-08-10T16:40:29.764Z,100754.44
2022-08-10T16:43:02.384Z,100761.97
2022-08-10T16:45:34.200Z,100756.31
2022-08-10T16:48:06.108Z,100749.97
2022-08-10T16:50:41.709Z,100750.81
2022-08-10T16:53:13.481Z,100750.31
2022-08-10T16:55:50.370Z,100750.97
2022-08-10T16:58:27.561Z,100745.81
2022-08-10T17:01:02.274Z,100748.75
2022-08-10T17:04:06.734Z,100724.16
2022-08-10T17:06:28.074Z,100758.56
2022-08-10T17:08:58.716Z,100743.06
2022-08-10T17:11:31.635Z,100744.78
2022-08-10T17:14:01.034Z,100745.75
2022-08-10T17:16:35.706Z,100752.13
2022-08-10T17:19:13.126Z,100749.16
2022-08-10T17:21:51.567Z,100750.84
2022-08-10T17:24:25.079Z,100750.03
2022-08-10T17:26:53.230Z,100753.44
2022-08-10T17:29:58.166Z,100750.47
2022-08-10T17:32:20.994Z,100744.09
2022-08-10T17:34:53.931Z,100746.16
2022-08-10T17:37:29.166Z,100745.81
2022-08-10T17:40:02.815Z,100737.19
2022-08-10T17:42:32.042Z,100744.34
2022-08-10T17:45:04.294Z,100746.72
2022-08-10T17:47:34.452Z,100750.63
2022-08-10T17:50:03.400Z,100740.81
2022-08-10T17:52:34.335Z,100736.88
2022-08-10T17:55:06.825Z,100743.03
2022-08-10T17:57:39.060Z,100741.63
2022-08-10T18:00:13.905Z,100740.25
2022-08-10T18:02:46.072Z,100745.84
2022-08-10T18:05:15.941Z,100742.53
2022-08-10T18:07:51.182Z,100741.25
2022-08-10T18:10:22.001Z,100749.81
2022-08-10T18:12:54.407Z,100751.94
2022-08-10T18:15:28.727Z,100741.06
2022-08-10T18:18:01.791Z,100745.53
2022-08-10T18:20:35.650Z,100743.59
2022-08-10T18:23:08.060Z,100737.47
2022-08-10T18:26:46.161Z,100743.66
2022-08-10T18:29:18.834Z,100752.56
2022-08-10T18:31:49.411Z,100746.50
2022-08-10T18:34:20.934Z,100756.88
2022-08-10T18:36:50.268Z,100752.38
2022-08-10T18:39:24.985Z,100756.06
2022-08-10T18:42:05.592Z,100756.22
2022-08-10T18:44:37.423Z,100755.75
2022-08-10T18:47:13.711Z,100755.75
2022-08-10T18:49:57.830Z,100761.72
2022-08-10T18:52:28.808Z,100751.84
2022-08-10T18:55:04.957Z,100756.78
2022-08-10T18:58:16.721Z,100755.44
2022-08-10T19:01:05.056Z,100753.44
2022-08-10T19:03:54.082Z,100757.06
2022-08-10T19:06:51.290Z,100765.28
2022-08-10T19:09:46.475Z,100763.19
2022-08-10T19:12:32.981Z,100769.31
2022-08-10T19:15:18.572Z,100769.47
2022-08-10T19:18:04.085Z,100770.91
2022-08-10T19:20:40.452Z,100778.78
2022-08-10T19:23:34.219Z,100783.28
2022-08-10T19:26:41.861Z,100778.38
2022-08-10T19:29:10.907Z,100774.41
2022-08-10T19:32:11.272Z,100775.22
2022-08-10T19:34:51.292Z,100778.63
2022-08-10T19:37:32.698Z,100789.34
2022-08-10T19:40:18.854Z,100780.13
2022-08-10T19:43:26.656Z,100779.72
2022-08-10T19:46:11.439Z,100780.22
2022-08-10T19:48:46.368Z,100771.50
2022-08-10T19:51:17.635Z,100787.34
2022-08-10T19:53:57.911Z,100785.34
2022-08-10T19:56:37.032Z,100788.34
2022-08-10T19:59:16.341Z,100786.66
2022-08-10T20:02:05.247Z,100779.25
2022-08-10T20:04:42.111Z,100783.00
2022-08-10T20:07:17.692Z,100786.34
2022-08-10T20:09:52.327Z,100778.09
2022-08-10T20:12:35.773Z,100781.09
2022-08-10T20:15:11.114Z,100788.03
2022-08-10T20:17:52.438Z,100789.00
2022-08-10T20:20:31.775Z,100784.72
2022-08-10T20:23:12.020Z,100785.75
2022-08-10T20:25:45.326Z,100784.28
2022-08-10T20:28:16.352Z,100788.16
2022-08-10T20:30:47.737Z,100765.88
2022-08-10T20:33:23.757Z,100790.53
2022-08-10T20:35:59.727Z,100792.97
2022-08-10T20:38:38.526Z,100787.53
2022-08-10T20:41:25.587Z,100785.47
2022-08-10T20:44:11.829Z,100784.88
2022-08-10T20:46:47.132Z,100793.81
2022-08-10T20:49:29.741Z,100788.94
2022-08-10T20:52:03.691Z,100793.75
2022-08-10T20:54:35.819Z,100788.22
2022-08-10T20:57:56.189Z,100782.16
2022-08-10T21:00:25.088Z,100789.81
2022-08-10T21:03:14.117Z,100781.56
2022-08-10T21:06:09.354Z,100787.09
2022-08-10T21:08:50.517Z,100775.28
2022-08-10T21:11:36.406Z,100778.44
2022-08-10T21:14:31.615Z,100773.28
2022-08-10T21:17:14.835Z,100782.88
2022-08-10T21:20:09.201Z,100781.88
2022-08-10T21:22:43.126Z,100779.78
2022-08-10T21:25:19.513Z,100779.06
2022-08-10T21:28:10.856Z,100777.34
2022-08-10T21:31:13.986Z,100779.25
2022-08-10T21:33:50.139Z,100781.75
2022-08-10T21:36:23.566Z,100776.94
2022-08-10T21:39:06.594Z,100783.28
2022-08-10T21:42:04.294Z,100779.69
2022-08-10T21:45:08.969Z,100778.78
2022-08-10T21:48:17.709Z,100777.06
2022-08-10T21:51:14.757Z,100777.56
2022-08-10T21:54:22.038Z,100779.81
2022-08-10T21:57:21.462Z,100780.91
2022-08-10T22:00:15.687Z,100774.13
2022-08-10T22:03:02.585Z,100776.56
2022-08-10T22:05:55.673Z,100775.19
2022-08-10T22:08:53.446Z,100775.31
2022-08-10T22:11:42.985Z,100770.59
2022-08-10T22:14:34.001Z,100770.97
2022-08-10T22:18:10.847Z,100776.19
2022-08-10T22:20:36.913Z,100784.09
2022-08-10T22:23:41.379Z,100778.13
2022-08-10T22:26:37.763Z,100772.25
2022-08-10T22:29:42.084Z,100782.31
2022-08-10T22:32:42.359Z,100778.13
2022-08-10T22:36:00.633Z,100783.00
2022-08-10T22:39:02.298Z,100784.88
2022-08-10T22:42:02.322Z,100794.19
2022-08-10T22:44:55.081Z,100793.44
2022-08-10T22:47:45.522Z,100782.06
2022-08-10T22:50:19.392Z,100787.50
2022-08-10T22:53:03.793Z,100790.69
2022-08-10T22:55:53.987Z,100788.75
2022-08-10T22:58:40.898Z,100783.44
2022-08-10T23:01:38.710Z,100795.38
2022-08-10T23:04:15.235Z,100791.47
2022-08-10T23:06:52.477Z,100787.78
2022-08-10T23:09:25.789Z,100780.94
2022-08-10T23:12:01.719Z,100785.50
2022-08-10T23:14:36.192Z,100788.44
2022-08-10T23:17:26.081Z,100790.47
2022-08-10T23:20:19.817Z,100786.84
2022-08-10T23:22:51.852Z,100781.72
2022-08-10T23:27:47.042Z,100788.22
2022-08-10T23:30:19.146Z,100788.03
2022-08-10T23:32:50.601Z,100779.97
2022-08-10T23:36:31.130Z,100786.94
2022-08-10T23:38:14.757Z,100790.50
2022-08-10T23:40:46.247Z,100794.69
2022-08-10T23:43:32.102Z,100788.19
2022-08-10T23:46:11.264Z,100801.41
2022-08-10T23:48:41.173Z,100799.88
2022-08-10T23:51:16.469Z,100796.59
2022-08-10T23:53:47.558Z,100797.13
2022-08-10T23:56:18.167Z,100798.09
2022-08-10T23:58:49.882Z,100791.47
